Time;durP1;ratioP1;P1;durP2;ratioP2;P2;SDS_P1;SDS_P2;PMS_P1;PMS_P2;Temp;Humidity;BMP_temperature;BMP_pressure;BME280_temperature;BME280_humidity;BME280_pressure;Samples;Min_cycle;Max_cycle;Signal;HPM_P1;HPM_P2
2021/05/27 00:01:08;;;;;;;6.53;3.30;;;;;;;13.27;69.29;100335.87;1664802;85;25329;-74
2021/05/27 00:03:35;;;;;;;4.72;3.33;;;;;;;13.25;69.42;100340.63;1623134;84;27547;-74
2021/05/27 00:06:02;;;;;;;4.35;3.00;;;;;;;13.24;69.51;100335.47;1655464;84;25661;-74
2021/05/27 00:08:29;;;;;;;7.92;3.37;;;;;;;13.26;69.81;100336.89;1632031;83;26371;-73
2021/05/27 00:10:56;;;;;;;5.90;3.30;;;;;;;13.25;70.06;100343.32;1693826;83;25818;-75
2021/05/27 00:13:23;;;;;;;5.65;3.75;;;;;;;13.24;70.19;100339.51;1663440;83;25668;-74
2021/05/27 00:15:50;;;;;;;8.43;3.80;;;;;;;13.25;70.37;100341.98;1629506;86;27616;-74
2021/05/27 00:18:17;;;;;;;6.25;4.62;;;;;;;13.26;70.49;100336.09;1650712;84;25797;-74
2021/05/27 00:20:44;;;;;;;9.75;5.33;;;;;;;13.27;70.72;100331.83;1670342;84;25656;-75
2021/05/27 00:23:11;;;;;;;7.90;4.60;;;;;;;13.27;70.78;100335.87;1649713;84;26289;-73
2021/05/27 00:25:38;;;;;;;9.00;4.53;;;;;;;13.28;70.72;100336.70;1621977;86;26284;-74
2021/05/27 00:28:05;;;;;;;7.40;4.53;;;;;;;13.28;70.87;100334.01;1603507;86;27277;-74
2021/05/27 00:30:32;;;;;;;8.35;4.20;;;;;;;13.27;70.79;100332.34;1618093;87;25976;-74
2021/05/27 00:33:00;;;;;;;6.67;3.95;;;;;;;13.25;70.76;100333.08;1651018;86;25668;-74
2021/05/27 00:35:27;;;;;;;6.05;3.40;;;;;;;13.25;70.93;100326.34;1641180;84;25845;-74
2021/05/27 00:37:54;;;;;;;6.25;3.47;;;;;;;13.25;70.79;100327.69;1658264;84;25653;-74
2021/05/27 00:40:21;;;;;;;7.50;3.50;;;;;;;13.22;71.00;100332.97;1674467;83;28057;-75
2021/05/27 00:42:48;;;;;;;3.30;3.00;;;;;;;13.20;71.10;100330.17;1676425;83;26019;-74
2021/05/27 00:45:18;;;;;;;8.45;3.77;;;;;;;13.17;71.09;100327.92;1659494;83;26448;-74
2021/05/27 00:47:46;;;;;;;6.00;3.75;;;;;;;13.15;71.25;100327.60;1634782;84;26567;-74
2021/05/27 00:50:22;;;;;;;5.85;3.55;;;;;;;13.15;71.32;100335.67;1691811;84;26515;-74
2021/05/27 00:52:52;;;;;;;6.67;3.80;;;;;;;13.15;71.36;100336.21;1625844;86;27972;-73
2021/05/27 00:55:23;;;;;;;5.35;3.42;;;;;;;13.14;71.61;100335.37;1622417;86;25724;-74
2021/05/27 00:57:51;;;;;;;6.00;4.12;;;;;;;13.18;71.67;100325.53;1660761;84;32588;-74
2021/05/27 01:00:22;;;;;;;6.35;3.92;;;;;;;13.18;71.94;100322.33;1667284;84;26544;-74
2021/05/27 01:02:49;;;;;;;6.87;3.95;;;;;;;13.17;71.87;100323.38;1606749;86;25790;-74
2021/05/27 01:05:17;;;;;;;4.90;3.80;;;;;;;13.17;72.02;100321.20;1616761;84;28102;-74
2021/05/27 01:07:46;;;;;;;6.12;4.00;;;;;;;13.16;71.91;100321.71;1587056;86;25813;-75
2021/05/27 01:10:14;;;;;;;5.83;3.85;;;;;;;13.15;72.05;100317.39;1687844;84;25699;-74
2021/05/27 01:12:42;;;;;;;5.78;3.50;;;;;;;13.15;72.13;100312.01;1621808;86;26803;-73
2021/05/27 01:18:00;;;;;;;6.12;3.87;;;;;;;13.15;72.11;100317.39;1628795;86;28214;-74
2021/05/27 01:20:30;;;;;;;5.33;3.65;;;;;;;13.12;72.25;100313.25;1656999;86;25899;-74
2021/05/27 01:22:57;;;;;;;7.62;4.00;;;;;;;13.10;72.33;100315.33;1642308;84;25679;-74
2021/05/27 01:25:25;;;;;;;4.58;3.50;;;;;;;13.10;72.33;100317.17;1656115;84;25749;-74
2021/05/27 01:27:52;;;;;;;8.10;3.83;;;;;;;13.09;72.38;100311.48;1665934;84;25719;-74
2021/05/27 01:30:19;;;;;;;6.30;4.00;;;;;;;13.06;72.49;100318.13;1688534;84;27406;-73
2021/05/27 01:32:47;;;;;;;4.85;3.60;;;;;;;13.05;72.63;100317.80;1651515;86;25731;-74
2021/05/27 01:35:20;;;;;;;4.75;3.37;;;;;;;13.04;72.70;100314.79;1651671;86;25769;-74
2021/05/27 01:37:47;;;;;;;4.80;3.45;;;;;;;13.05;72.78;100311.59;1688762;84;25750;-74
2021/05/27 01:40:17;;;;;;;6.12;3.55;;;;;;;13.05;72.70;100312.94;1635018;85;25679;-74
2021/05/27 01:42:44;;;;;;;6.75;2.72;;;;;;;13.03;72.70;100314.47;1647451;84;28055;-75
2021/05/27 01:45:12;;;;;;;5.75;3.35;;;;;;;13.02;72.89;100314.14;1687110;84;25635;-74
2021/05/27 01:47:40;;;;;;;4.17;3.22;;;;;;;13.01;72.89;100308.47;1641896;85;25715;-74
2021/05/27 01:50:11;;;;;;;4.40;3.40;;;;;;;13.00;72.96;100310.04;1649819;84;26358;-75
2021/05/27 01:52:38;;;;;;;3.47;3.02;;;;;;;13.00;73.06;100312.19;1671883;84;26319;-75
2021/05/27 01:55:07;;;;;;;7.33;3.77;;;;;;;13.03;73.08;100313.63;1685078;84;28101;-74
2021/05/27 01:57:34;;;;;;;6.40;4.35;;;;;;;13.02;73.02;100314.14;1665217;84;25701;-74
2021/05/27 02:00:04;;;;;;;7.72;4.70;;;;;;;12.99;72.98;100312.41;1623604;86;25647;-74
2021/05/27 02:02:33;;;;;;;7.95;4.33;;;;;;;12.99;73.01;100313.75;1637210;85;25797;-74
2021/05/27 02:05:00;;;;;;;6.28;4.08;;;;;;;12.94;73.07;100315.72;1626992;86;25722;-73
2021/05/27 02:07:30;;;;;;;9.75;5.03;;;;;;;12.90;73.21;100314.99;1668493;84;27479;-74
2021/05/27 02:09:58;;;;;;;6.92;4.35;;;;;;;12.91;73.41;100313.97;1623844;86;25700;-74
2021/05/27 02:12:28;;;;;;;8.15;4.83;;;;;;;12.92;73.39;100314.27;1642117;84;25786;-73
2021/05/27 02:14:55;;;;;;;8.43;5.22;;;;;;;12.91;73.34;100316.15;1630489;86;26187;-74
2021/05/27 02:17:22;;;;;;;6.95;3.92;;;;;;;12.93;73.38;100307.36;1629753;86;25831;-74
2021/05/27 02:19:49;;;;;;;5.50;3.85;;;;;;;12.95;73.34;100313.86;1668387;84;27519;-74
2021/05/27 02:22:17;;;;;;;7.40;4.22;;;;;;;12.95;73.50;100312.00;1655105;83;25767;-74
2021/05/27 02:24:58;;;;;;;6.05;3.67;;;;;;;12.95;73.37;100309.31;1690671;84;25712;-74
2021/05/27 02:27:29;;;;;;;8.13;4.37;;;;;;;12.94;73.26;100310.84;1666225;84;25821;-74
2021/05/27 02:29:56;;;;;;;8.30;3.98;;;;;;;12.93;73.31;100316.77;1624976;86;25733;-75
2021/05/27 02:32:23;;;;;;;5.97;3.60;;;;;;;12.91;73.26;100309.94;1605650;86;27305;-74
2021/05/27 02:34:51;;;;;;;10.05;3.75;;;;;;;12.90;73.21;100310.96;1692185;84;25748;-75
2021/05/27 02:37:19;;;;;;;6.80;2.98;;;;;;;12.88;73.10;100306.31;1655854;83;25634;-74
2021/05/27 02:39:48;;;;;;;4.15;3.05;;;;;;;12.88;73.09;100308.48;1625802;86;25959;-74
2021/05/27 02:42:17;;;;;;;8.20;3.80;;;;;;;12.88;73.12;100309.83;1610607;86;25657;-74
2021/05/27 02:44:47;;;;;;;4.87;2.92;;;;;;;12.87;73.08;100302.79;1690476;84;27458;-73
2021/05/27 02:47:15;;;;;;;5.53;3.10;;;;;;;12.88;73.04;100312.52;1624328;86;25818;-74
2021/05/27 02:49:43;;;;;;;7.60;3.45;;;;;;;12.89;73.13;100310.67;1646686;84;25722;-75
2021/05/27 02:52:10;;;;;;;6.20;3.45;;;;;;;12.90;73.09;100310.96;1628022;86;25826;-74
2021/05/27 02:54:38;;;;;;;5.62;3.00;;;;;;;12.90;73.14;100311.80;1689589;84;25786;-74
2021/05/27 02:57:05;;;;;;;4.37;3.45;;;;;;;12.89;73.11;100308.81;1676418;83;27088;-74
2021/05/27 02:59:34;;;;;;;5.50;2.92;;;;;;;12.90;73.11;100309.61;1666916;84;25815;-73
2021/05/27 03:02:04;;;;;;;6.67;3.50;;;;;;;12.90;73.23;100312.30;1650575;83;25725;-73
2021/05/27 03:04:33;;;;;;;5.37;3.20;;;;;;;12.89;73.18;100307.47;1680885;83;26069;-73
2021/05/27 03:07:01;;;;;;;4.22;2.77;;;;;;;12.90;73.17;100309.61;1607426;86;25746;-74
2021/05/27 03:09:28;;;;;;;4.25;3.47;;;;;;;12.90;73.28;100310.96;1644317;84;27459;-74
2021/05/27 03:11:56;;;;;;;6.78;3.17;;;;;;;12.88;73.41;100311.69;1624891;84;25791;-74
2021/05/27 03:14:25;;;;;;;6.10;4.28;;;;;;;12.84;73.60;100313.98;1690392;84;25629;-74
2021/05/27 03:16:54;;;;;;;4.97;3.25;;;;;;;12.85;73.61;100320.19;1661724;84;25917;-74
2021/05/27 03:19:22;;;;;;;4.67;3.27;;;;;;;12.81;73.66;100314.38;1627901;85;25761;-74
2021/05/27 03:21:49;;;;;;;4.85;3.37;;;;;;;12.82;73.72;100316.05;1589633;86;28053;-73
2021/05/27 03:24:17;;;;;;;5.22;3.20;;;;;;;12.83;73.87;100315.00;1652463;86;25695;-74
2021/05/27 03:26:44;;;;;;;10.23;3.02;;;;;;;12.84;73.89;100320.70;1630594;86;25832;-75
2021/05/27 03:29:13;;;;;;;3.83;2.52;;;;;;;12.84;73.94;100323.89;1627409;84;26382;-74
2021/05/27 03:31:41;;;;;;;3.22;2.72;;;;;;;12.83;73.92;100317.69;1631126;86;25724;-75
2021/05/27 03:34:08;;;;;;;4.17;3.25;;;;;;;12.82;73.94;100324.63;1654934;84;28046;-74
2021/05/27 03:36:35;;;;;;;3.92;2.58;;;;;;;12.83;73.99;100324.95;1655888;84;26114;-74
2021/05/27 03:39:06;;;;;;;3.42;2.50;;;;;;;12.82;73.99;100321.42;1644319;84;25725;-75
2021/05/27 03:41:33;;;;;;;4.50;3.12;;;;;;;12.85;73.96;100328.25;1655393;84;25860;-73
2021/05/27 03:44:01;;;;;;;5.40;2.83;;;;;;;12.87;74.04;100326.98;1630550;86;25899;-73
2021/05/27 03:46:32;;;;;;;4.25;2.65;;;;;;;12.89;73.95;100316.05;1677861;83;28016;-73
2021/05/27 03:48:59;;;;;;;3.83;2.80;;;;;;;12.91;73.84;100320.69;1634741;84;25700;-74
2021/05/27 03:51:26;;;;;;;4.00;3.10;;;;;;;12.93;73.80;100323.48;1638985;84;25746;-74
2021/05/27 03:53:53;;;;;;;3.72;2.70;;;;;;;12.90;73.63;100325.23;1633082;85;25744;-73
2021/05/27 03:56:20;;;;;;;5.53;3.22;;;;;;;12.88;73.59;100331.84;1665151;84;25995;-74
2021/05/27 04:01:34;;;;;;;2.98;2.50;;;;;;;12.85;73.33;100329.05;1656314;84;25693;-75
2021/05/27 04:07:08;;;;;;;4.22;2.85;;;;;;;12.85;73.35;100326.36;1688000;84;26244;-74
2021/05/27 04:09:33;;;;;;;4.05;2.50;;;;;;;12.85;73.22;100332.28;1652976;84;25863;-74
2021/05/27 04:15:19;;;;;;;3.25;2.70;;;;;;;12.87;73.24;100328.87;1654376;86;26531;-74
2021/05/27 04:17:14;;;;;;;2.47;2.05;;;;;;;12.89;73.39;100337.04;1686448;84;25712;-74
2021/05/27 04:19:41;;;;;;;6.80;2.75;;;;;;;12.93;73.53;100341.47;1653783;83;26122;-74
2021/05/27 04:22:08;;;;;;;7.55;2.70;;;;;;;12.95;73.39;100348.81;1675422;83;25937;-74
2021/05/27 04:24:35;;;;;;;4.20;2.37;;;;;;;12.97;73.32;100344.05;1657086;84;27384;-73
2021/05/27 04:27:02;;;;;;;4.78;2.35;;;;;;;13.00;73.18;100343.64;1657029;86;25775;-74
2021/05/27 04:29:29;;;;;;;5.10;2.67;;;;;;;12.99;72.97;100352.22;1616514;84;25819;-74
2021/05/27 04:31:56;;;;;;;3.10;2.70;;;;;;;12.98;72.93;100349.75;1610129;86;25813;-75
2021/05/27 04:34:23;;;;;;;5.25;2.55;;;;;;;12.96;72.77;100348.59;1693290;84;25630;-74
2021/05/27 04:36:50;;;;;;;4.87;2.75;;;;;;;12.96;72.83;100347.25;1673725;84;27365;-74
2021/05/27 04:39:17;;;;;;;3.62;3.00;;;;;;;12.97;72.81;100348.08;1613074;86;25956;-74
2021/05/27 04:41:44;;;;;;;4.03;2.35;;;;;;;12.95;72.71;100350.16;1670813;84;25864;-75
2021/05/27 04:44:11;;;;;;;4.05;2.77;;;;;;;12.92;72.75;100343.33;1642263;85;25839;-74
2021/05/27 04:46:38;;;;;;;4.30;2.87;;;;;;;12.91;72.81;100344.38;1668466;84;26132;-75
2021/05/27 04:49:05;;;;;;;4.37;2.40;;;;;;;12.89;72.75;100348.30;1641891;84;27465;-74
2021/05/27 04:51:33;;;;;;;4.67;2.42;;;;;;;12.88;72.89;100352.84;1624853;86;25730;-75
2021/05/27 04:54:00;;;;;;;4.15;2.77;;;;;;;12.89;73.02;100353.68;1666700;84;26557;-74
2021/05/27 04:56:27;;;;;;;5.40;2.75;;;;;;;12.89;72.84;100354.52;1610048;86;25888;-74
2021/05/27 04:58:55;;;;;;;3.50;2.62;;;;;;;12.89;72.79;100355.86;1624940;86;26561;-74
2021/05/27 05:01:22;;;;;;;4.87;3.47;;;;;;;12.88;72.79;100358.73;1621059;86;27624;-74
2021/05/27 05:03:49;;;;;;;5.53;3.05;;;;;;;12.89;72.90;100359.89;1613734;86;26424;-74
2021/05/27 05:06:16;;;;;;;3.83;2.58;;;;;;;12.88;72.78;100354.19;1655287;84;26738;-75
2021/05/27 05:08:43;;;;;;;3.67;2.70;;;;;;;12.91;72.87;100363.20;1606667;86;25730;-74
2021/05/27 05:11:10;;;;;;;4.15;3.08;;;;;;;12.94;72.97;100366.80;1623940;86;25821;-74
2021/05/27 05:13:37;;;;;;;6.37;3.35;;;;;;;13.01;72.98;100362.76;1606333;86;27640;-75
2021/05/27 05:16:04;;;;;;;4.25;2.90;;;;;;;13.07;72.80;100363.30;1630654;86;25788;-75
2021/05/27 05:18:31;;;;;;;5.30;3.20;;;;;;;13.11;73.08;100356.47;1643137;84;25830;-75
2021/05/27 05:20:58;;;;;;;4.85;3.02;;;;;;;13.19;72.94;100356.78;1622568;86;25966;-75
2021/05/27 05:23:25;;;;;;;6.00;2.77;;;;;;;13.26;72.85;100365.67;1663177;84;25753;-76
2021/05/27 05:25:52;;;;;;;5.08;2.98;;;;;;;13.30;72.73;100365.02;1650253;86;27004;-75
2021/05/27 05:28:20;;;;;;;4.35;2.67;;;;;;;13.36;72.71;100365.55;1635130;86;25732;-75
2021/05/27 05:30:47;;;;;;;5.65;2.65;;;;;;;13.41;72.58;100364.38;1605316;86;25839;-75
2021/05/27 05:33:14;;;;;;;4.05;2.80;;;;;;;13.47;72.50;100372.14;1666675;84;25819;-77
2021/05/27 05:35:41;;;;;;;4.62;3.83;;;;;;;13.49;72.23;100368.21;1686696;84;25639;-75
2021/05/27 05:38:08;;;;;;;5.90;2.58;;;;;;;13.54;71.94;100366.20;1661241;85;27632;-76
2021/05/27 05:40:36;;;;;;;5.40;2.98;;;;;;;13.68;72.03;100370.02;1657223;84;25815;-76
2021/05/27 05:43:04;;;;;;;4.85;2.77;;;;;;;13.80;72.20;100382.27;1686817;84;25708;-75
2021/05/27 05:45:31;;;;;;;4.58;2.70;;;;;;;13.87;71.30;100385.78;1652881;86;25758;-75
2021/05/27 05:48:00;;;;;;;5.90;2.92;;;;;;;13.95;70.83;100385.53;1583179;86;25757;-75
2021/05/27 05:50:48;;;;;;;4.42;2.67;;;;;;;14.00;71.06;100386.24;1629029;86;28306;-75
2021/05/27 05:53:21;;;;;;;7.55;2.65;;;;;;;14.02;70.82;100386.34;1651650;86;26674;-76
2021/05/27 05:55:51;;;;;;;5.05;2.77;;;;;;;14.05;70.77;100395.31;1686459;84;26515;-75
2021/05/27 05:58:19;;;;;;;4.87;2.70;;;;;;;14.04;70.86;100397.72;1598280;86;25884;-76
2021/05/27 06:00:47;;;;;;;4.22;2.50;;;;;;;14.04;70.62;100396.37;1623345;86;25858;-75
2021/05/27 06:03:14;;;;;;;4.12;2.40;;;;;;;14.02;70.35;100395.77;1650276;86;27424;-75
2021/05/27 06:06:01;;;;;;;3.87;2.20;;;;;;;14.01;70.34;100402.72;1620840;86;25722;-75
2021/05/27 06:08:41;;;;;;;3.22;2.20;;;;;;;14.03;70.51;100404.13;1643478;84;25741;-76
2021/05/27 06:11:08;;;;;;;2.90;2.27;;;;;;;14.05;70.28;100399.91;1657111;84;26274;-75
2021/05/27 06:13:35;;;;;;;6.20;2.30;;;;;;;14.09;70.16;100395.22;1698924;83;26097;-76
2021/05/27 06:16:04;;;;;;;3.22;2.30;;;;;;;14.14;70.32;100397.25;1653486;86;27516;-75
2021/05/27 06:18:31;;;;;;;7.60;2.60;;;;;;;14.20;70.29;100403.95;1640933;85;25346;-75
2021/05/27 06:20:59;;;;;;;3.92;2.67;;;;;;;14.25;70.25;100403.31;1589569;84;25737;-75
2021/05/27 06:23:28;;;;;;;2.15;1.95;;;;;;;14.30;70.02;100404.88;1652911;86;25660;-75
2021/05/27 06:25:55;;;;;;;3.30;2.05;;;;;;;14.33;69.62;100409.82;1694856;83;25293;-75
2021/05/27 06:28:21;;;;;;;3.65;2.50;;;;;;;14.33;69.15;100406.61;1689771;84;25672;-75
2021/05/27 06:30:48;;;;;;;4.15;1.65;;;;;;;14.35;69.00;100406.42;1676085;83;25764;-76
2021/05/27 06:33:15;;;;;;;3.05;2.00;;;;;;;14.36;68.28;100409.41;1685728;84;25808;-76
2021/05/27 06:35:42;;;;;;;4.15;2.22;;;;;;;14.37;68.07;100415.11;1697071;83;26451;-75
2021/05/27 06:38:09;;;;;;;2.40;1.85;;;;;;;14.47;68.09;100418.16;1634343;83;25706;-75
2021/05/27 06:40:36;;;;;;;2.40;2.02;;;;;;;14.49;68.16;100419.59;1642890;84;26350;-76
2021/05/27 06:43:02;;;;;;;6.60;2.10;;;;;;;14.50;67.02;100420.41;1692488;84;26470;-74
2021/05/27 06:45:29;;;;;;;2.92;1.80;;;;;;;14.49;67.73;100424.98;1657278;86;25669;-74
2021/05/27 06:47:56;;;;;;;3.20;2.02;;;;;;;14.56;67.14;100427.10;1631472;86;25712;-75
2021/05/27 06:50:33;;;;;;;4.40;1.90;;;;;;;14.67;66.47;100427.77;1624206;86;26446;-76
2021/05/27 06:53:04;;;;;;;2.87;1.77;;;;;;;14.81;66.67;100421.77;1687286;83;26335;-75
2021/05/27 06:55:31;;;;;;;2.47;1.92;;;;;;;14.89;66.65;100420.66;1624253;86;25790;-75
2021/05/27 06:57:58;;;;;;;1.82;1.55;;;;;;;15.09;66.65;100423.53;1654776;85;25769;-75
2021/05/27 07:00:25;;;;;;;2.62;1.75;;;;;;;15.25;66.59;100428.36;1642378;84;25884;-75
2021/05/27 07:02:52;;;;;;;1.77;1.62;;;;;;;15.35;65.50;100427.87;1640449;84;25638;-74
2021/05/27 07:05:20;;;;;;;4.80;2.08;;;;;;;15.46;65.40;100427.17;1675141;84;26354;-75
2021/05/27 07:07:48;;;;;;;2.80;1.72;;;;;;;15.57;65.10;100435.87;1654140;86;25780;-74
2021/05/27 07:10:16;;;;;;;3.45;1.62;;;;;;;15.58;64.37;100431.30;1644836;84;26402;-76
2021/05/27 07:12:56;;;;;;;6.10;1.60;;;;;;;15.58;63.72;100432.66;1624025;86;26429;-75
2021/05/27 07:15:26;;;;;;;2.65;1.32;;;;;;;15.57;63.95;100432.37;1622240;86;25886;-74
2021/05/27 07:17:54;;;;;;;1.65;1.25;;;;;;;15.55;63.36;100440.67;1689262;84;26412;-75
2021/05/27 07:20:23;;;;;;;1.30;1.20;;;;;;;15.54;62.21;100436.84;1608172;86;25999;-76
2021/05/27 07:22:51;;;;;;;1.82;1.20;;;;;;;15.56;62.71;100439.63;1648425;84;26018;-75
2021/05/27 07:25:20;;;;;;;1.82;1.20;;;;;;;15.63;61.72;100440.92;1690396;83;26372;-76
2021/05/27 07:27:52;;;;;;;2.17;1.22;;;;;;;15.72;61.72;100439.55;1655326;85;25740;-75
2021/05/27 07:30:21;;;;;;;1.27;1.15;;;;;;;15.85;61.33;100448.87;1649155;84;25676;-75
2021/05/27 07:32:49;;;;;;;2.10;1.30;;;;;;;15.94;61.07;100444.83;1630963;86;26443;-76
2021/05/27 07:35:16;;;;;;;2.67;1.45;;;;;;;16.07;61.99;100454.13;1653181;86;25646;-75
2021/05/27 07:37:43;;;;;;;1.85;0.98;;;;;;;16.18;61.83;100459.62;1657128;85;25742;-75
2021/05/27 07:40:10;;;;;;;1.60;0.90;;;;;;;16.27;59.26;100453.38;1662281;84;25997;-74
2021/05/27 07:42:38;;;;;;;1.10;1.00;;;;;;;16.34;59.72;100466.27;1628694;86;25672;-75
2021/05/27 07:45:07;;;;;;;1.72;1.05;;;;;;;16.39;59.51;100455.61;1623422;86;25758;-74
2021/05/27 07:47:34;;;;;;;3.15;0.90;;;;;;;16.43;58.01;100460.85;1688332;84;25710;-74
2021/05/27 07:50:03;;;;;;;1.37;1.05;;;;;;;16.44;57.62;100468.45;1687447;84;26101;-76
2021/05/27 07:52:30;;;;;;;2.17;0.98;;;;;;;16.48;58.80;100471.82;1626359;86;25349;-74
2021/05/27 07:54:57;;;;;;;1.47;0.80;;;;;;;16.60;58.03;100466.48;1633603;86;25699;-75
2021/05/27 07:57:24;;;;;;;1.00;0.90;;;;;;;16.66;57.31;100465.55;1666718;84;25776;-74
2021/05/27 07:59:50;;;;;;;2.40;1.00;;;;;;;16.51;56.17;100469.22;1663508;84;26540;-75
2021/05/27 08:02:17;;;;;;;1.17;0.90;;;;;;;16.39;56.74;100473.17;1631795;86;26427;-75
2021/05/27 08:04:44;;;;;;;1.67;0.90;;;;;;;16.43;56.74;100473.53;1639417;84;25692;-75
2021/05/27 08:07:13;;;;;;;2.47;1.00;;;;;;;16.50;56.64;100475.67;1653327;86;27587;-76
2021/05/27 08:09:40;;;;;;;1.20;1.00;;;;;;;16.54;56.25;100488.51;1667660;84;25855;-74
2021/05/27 08:12:09;;;;;;;1.57;1.00;;;;;;;16.60;56.64;100480.83;1661563;84;26394;-74
2021/05/27 08:14:37;;;;;;;2.08;1.17;;;;;;;16.71;55.85;100479.23;1683559;84;25859;-76
2021/05/27 08:17:04;;;;;;;3.05;1.12;;;;;;;16.63;56.04;100483.09;1699252;83;25770;-75
2021/05/27 08:19:31;;;;;;;1.02;0.93;;;;;;;16.70;56.67;100489.77;1685093;83;27998;-75
2021/05/27 08:21:58;;;;;;;4.42;1.20;;;;;;;16.62;55.21;100492.77;1675955;83;25803;-75
2021/05/27 08:24:26;;;;;;;4.25;1.10;;;;;;;16.41;56.41;100499.98;1661094;83;26050;-75
2021/05/27 08:26:53;;;;;;;1.35;1.07;;;;;;;16.26;56.05;100494.96;1678193;83;26655;-75
2021/05/27 08:29:20;;;;;;;1.52;1.22;;;;;;;16.17;57.41;100496.30;1644849;84;25941;-75
2021/05/27 08:31:47;;;;;;;2.62;1.40;;;;;;;16.38;58.44;100497.20;1654591;84;27465;-75
2021/05/27 08:34:14;;;;;;;2.55;1.15;;;;;;;16.68;57.51;100502.69;1674606;84;25761;-74
2021/05/27 08:36:41;;;;;;;2.02;0.98;;;;;;;16.85;57.29;100505.05;1689855;84;25742;-74
2021/05/27 08:39:09;;;;;;;1.27;1.07;;;;;;;17.06;56.54;100498.29;1645081;84;26074;-75
2021/05/27 08:41:37;;;;;;;0.80;0.70;;;;;;;17.15;56.07;100506.38;1658177;84;26394;-76
2021/05/27 08:44:05;;;;;;;1.00;0.88;;;;;;;17.07;55.47;100508.04;1634086;86;27226;-75
2021/05/27 08:46:32;;;;;;;1.40;1.10;;;;;;;16.96;55.32;100508.30;1629880;86;25722;-75
2021/05/27 08:49:05;;;;;;;1.67;1.40;;;;;;;16.81;55.76;100515.48;1629832;86;25508;-74
2021/05/27 08:51:35;;;;;;;2.02;1.37;;;;;;;16.68;55.34;100521.63;1665632;84;25812;-75
2021/05/27 08:54:04;;;;;;;1.25;0.95;;;;;;;16.54;54.97;100519.61;1655122;84;26479;-75
2021/05/27 08:56:31;;;;;;;2.12;0.90;;;;;;;16.64;55.87;100514.99;1690620;84;27411;-75
2021/05/27 08:58:59;;;;;;;1.62;1.15;;;;;;;16.83;53.42;100509.84;1605533;86;25746;-76
2021/05/27 09:01:26;;;;;;;2.95;2.47;;;;;;;16.91;55.09;100516.31;1607345;86;25733;-75
2021/05/27 09:03:54;;;;;;;2.12;1.05;;;;;;;17.05;54.49;100517.75;1644006;84;26371;-75
2021/05/27 09:06:23;;;;;;;1.47;1.17;;;;;;;17.21;55.38;100518.98;1649116;86;26184;-75
2021/05/27 09:09:07;;;;;;;1.22;1.07;;;;;;;17.38;53.86;100527.56;1610412;86;28105;-74
2021/05/27 09:11:38;;;;;;;2.25;1.70;;;;;;;17.44;54.30;100518.50;1660131;84;26390;-75
2021/05/27 09:14:05;;;;;;;2.00;1.17;;;;;;;17.53;54.07;100523.08;1637723;84;26491;-75
2021/05/27 09:16:33;;;;;;;2.50;1.25;;;;;;;17.57;54.98;100516.97;1678286;84;26407;-74
2021/05/27 09:19:19;;;;;;;1.25;1.15;;;;;;;17.68;54.02;100519.39;1645734;84;25665;-75
2021/05/27 09:21:46;;;;;;;1.20;1.10;;;;;;;17.67;53.10;100523.14;1662883;84;28592;-75
2021/05/27 09:24:14;;;;;;;2.42;1.25;;;;;;;17.51;53.32;100523.29;1602458;86;25745;-75
2021/05/27 09:26:56;;;;;;;1.95;1.10;;;;;;;17.48;53.96;100522.91;1649848;86;25826;-75
2021/05/27 09:29:23;;;;;;;1.50;1.30;;;;;;;17.56;54.61;100534.26;1633615;86;26491;-76
2021/05/27 09:32:07;;;;;;;2.67;1.30;;;;;;;17.72;55.51;100525.98;1605548;86;26505;-76
2021/05/27 09:34:49;;;;;;;1.65;1.22;;;;;;;17.90;54.85;100525.05;1649560;84;27396;-75
2021/05/27 09:37:30;;;;;;;1.40;1.30;;;;;;;18.07;54.47;100531.41;1686664;84;25917;-75
2021/05/27 09:39:54;;;;;;;5.15;2.00;;;;;;;18.11;53.44;100538.80;1608170;86;26363;-76
2021/05/27 09:42:21;;;;;;;1.67;1.57;;;;;;;18.11;52.95;100554.27;1658401;84;25753;-75
2021/05/27 09:44:49;;;;;;;1.62;1.52;;;;;;;17.89;53.03;100554.55;1635088;86;25756;-74
2021/05/27 09:47:35;;;;;;;2.45;1.40;;;;;;;17.75;53.85;100554.49;1690552;84;27450;-75
2021/05/27 09:50:08;;;;;;;3.05;1.57;;;;;;;17.53;53.52;100561.00;1655516;84;25674;-75
2021/05/27 09:52:41;;;;;;;3.70;1.65;;;;;;;17.34;53.20;100570.23;1679392;84;25757;-75
2021/05/27 09:55:15;;;;;;;2.05;1.80;;;;;;;17.20;53.80;100563.34;1602059;86;25828;-76
2021/05/27 09:57:44;;;;;;;1.70;1.35;;;;;;;17.17;54.65;100565.17;1657080;86;26099;-74
2021/05/27 10:00:28;;;;;;;1.70;1.60;;;;;;;17.15;54.94;100568.08;1627623;86;27387;-75
2021/05/27 10:02:55;;;;;;;1.62;1.52;;;;;;;17.08;53.83;100570.08;1629823;86;25686;-75
2021/05/27 10:05:22;;;;;;;1.95;1.70;;;;;;;17.01;53.75;100573.40;1612375;86;25778;-75
2021/05/27 10:07:53;;;;;;;2.17;1.98;;;;;;;16.93;53.69;100577.27;1689486;84;25865;-75
2021/05/27 10:10:22;;;;;;;;;;;;;;;16.94;53.32;100574.84;1657297;84;25678;-74
2021/05/27 10:12:54;;;;;;;3.50;2.00;;;;;;;17.09;53.68;100579.84;1631125;84;27419;-75
2021/05/27 10:15:24;;;;;;;2.42;1.85;;;;;;;17.17;54.48;100567.88;1700207;83;25636;-75
2021/05/27 10:17:54;;;;;;;1.60;1.50;;;;;;;17.22;53.34;100572.05;1697522;83;25708;-75
2021/05/27 10:20:25;;;;;;;1.77;1.65;;;;;;;17.31;53.52;100574.73;1652299;83;26289;-75
2021/05/27 10:23:01;;;;;;;2.08;1.75;;;;;;;17.42;54.04;100579.36;1651983;84;25289;-75
2021/05/27 10:25:26;;;;;;;1.35;1.25;;;;;;;17.62;53.53;100571.80;1697771;83;28072;-74
2021/05/27 10:27:57;;;;;;;2.75;1.70;;;;;;;17.81;52.76;100582.83;1663303;84;25704;-75
2021/05/27 10:30:26;;;;;;;2.55;1.42;;;;;;;17.78;50.72;100578.39;1626196;86;25727;-76
2021/05/27 10:33:02;;;;;;;1.60;1.30;;;;;;;17.72;52.14;100578.81;1644282;84;25761;-76
2021/05/27 10:35:48;;;;;;;2.37;1.40;;;;;;;17.85;52.92;100582.66;1667459;84;25697;-75
2021/05/27 10:38:17;;;;;;;1.70;1.45;;;;;;;17.96;52.21;100570.17;1654279;86;27473;-75
2021/05/27 10:40:50;;;;;;;2.67;1.50;;;;;;;17.97;51.30;100569.09;1688551;84;25736;-76
2021/05/27 10:43:17;;;;;;;1.62;1.37;;;;;;;18.02;51.15;100563.28;1629186;86;25706;-76
2021/05/27 10:46:04;;;;;;;4.30;1.72;;;;;;;18.10;50.95;100570.22;1649336;84;26484;-75
2021/05/27 10:48:48;;;;;;;1.62;1.40;;;;;;;18.21;51.09;100573.45;1666176;84;25651;-74
2021/05/27 10:51:32;;;;;;;1.90;1.50;;;;;;;18.21;50.24;100568.87;1688913;84;27358;-76
2021/05/27 10:54:08;;;;;;;2.67;1.50;;;;;;;18.13;49.50;100569.23;1676976;84;25640;-75
2021/05/27 10:56:40;;;;;;;2.42;2.22;;;;;;;18.19;50.67;100577.77;1647555;85;25771;-75
2021/05/27 10:59:18;;;;;;;2.33;1.42;;;;;;;18.18;50.32;100573.92;1689344;84;26410;-75
2021/05/27 11:01:52;;;;;;;2.47;1.27;;;;;;;18.13;49.29;100569.23;1664735;84;26495;-75
2021/05/27 11:04:35;;;;;;;3.33;1.57;;;;;;;18.10;49.97;100566.98;1693168;84;27470;-75
2021/05/27 11:07:23;;;;;;;4.42;1.90;;;;;;;18.04;49.28;100580.13;1651902;84;25809;-75
2021/05/27 11:09:54;;;;;;;1.70;1.52;;;;;;;17.87;48.86;100581.06;1694537;84;25919;-75
2021/05/27 11:12:30;;;;;;;1.70;1.60;;;;;;;17.80;49.09;100583.88;1667879;84;31139;-75
2021/05/27 11:15:11;;;;;;;2.47;1.40;;;;;;;17.85;50.18;100580.47;1677118;84;26444;-75
2021/05/27 11:17:38;;;;;;;2.72;1.52;;;;;;;18.07;50.54;100569.35;1628927;86;27517;-74
2021/05/27 11:20:19;;;;;;;2.20;1.57;;;;;;;18.24;50.59;100569.73;1682768;84;26444;-75
2021/05/27 11:25:19;;;;;;;3.95;1.17;;;;;;;18.33;47.50;100574.27;1634569;85;26344;-75
2021/05/27 11:27:56;;;;;;;1.57;1.37;;;;;;;18.17;46.42;100589.91;1690996;84;26337;-75
2021/05/27 11:30:44;;;;;;;3.60;0.98;;;;;;;18.14;46.72;100580.88;1693181;83;27402;-74
2021/05/27 11:33:28;;;;;;;3.22;1.52;;;;;;;18.28;47.27;100577.68;1684476;83;25764;-74
2021/05/27 11:35:58;;;;;;;1.90;1.10;;;;;;;18.40;45.90;100583.94;1670707;84;25766;-75
2021/05/27 11:38:35;;;;;;;2.70;0.90;;;;;;;18.48;46.59;100583.59;1677254;83;26428;-75
2021/05/27 11:41:09;;;;;;;2.90;1.07;;;;;;;18.61;45.88;100583.03;1699006;83;25727;-75
2021/05/27 11:43:49;;;;;;;1.90;1.10;;;;;;;18.70;47.17;100578.88;1672453;83;27359;-76
2021/05/27 11:46:21;;;;;;;1.73;1.07;;;;;;;18.89;45.24;100577.12;1654836;83;25798;-76
2021/05/27 11:51:24;;;;;;;2.08;1.30;;;;;;;19.19;45.44;100580.95;1696830;83;26088;-75